Bristol, NH (03222)

5:34 PM EST on December 02, 2016 (GMT -0500)
Bristol Village | | Change Station

Elev 515 ft 43.59 °N, 71.74 °W | Updated 14 seconds ago

Clear
Clear
41.0 °F
Feels Like 36 °F
N
7.0
Wind Variable Wind from WNW
Gusts 7.0 mph

Today
High -- | Low -- °F
--% Chance of Precip.
Yesterday
High -- | Low -- °F
Precip. -- in
Pressure 29.75 in
Visibility 10.0 miles
Clouds Clear
Windchill 36 °F
Dew Point 33 °F
Humidity 72%
Rainfall 0.00 in
Snow Depth Not available.
7:02 AM 4:11 PM
Waxing Crescent, 11% visible
METAR KLCI 022156Z AUTO 25010G18KT 10SM CLR 06/01 A2969 RMK AO2 RAB12E28 SLP072 P0000 T00560006
Pressure 29.75 in
Visibility 10.0 miles
Clouds Clear
Windchill 36 °F
Dew Point 33 °F
Humidity 72%
Rainfall 0.00 in
Snow Depth Not available.
7:02 AM 4:11 PM
Waxing Crescent, 11% visible
METAR KLCI 022156Z AUTO 25010G18KT 10SM CLR 06/01 A2969 RMK AO2 RAB12E28 SLP072 P0000 T00560006

10-Day Weather Forecast

Almanac

Astronomy

Dec. 02, 2016 Rise Set
Actual Time
Civil Twilight
Nautical Twilight
Astronomical Twilight
Moon
Length of Visible Light
Length of Day
Tomorrow will be .
, % of the Moon is Illuminated

Today's Extremes

State Highs State Lows

Community

WunderPhotos

Upload Photos

1,955,376 photos uploaded!

WunderBlog® & News

Nearby

Air Quality

  Air Quality AQ Index Pollutant
Not available.

Snow Depth

Station Depth Elevation

Earthquake Activity

City Distance Mag. Time & Date
Minimum magnitude displayed is 2.5.

Coastal Water Temperatures

Place Temperature

Stations

Nearby Weather Stations

Station Location Temp. Windchill Dew Point Humidity Wind Precip. Elev Updated Type
                   

Watches & Warnings

There are currently no watches in effect.